Weather at Norwich International Airport

Public forecast

Using degrees Celsius for public forecast. Weather courtesy of forecast.io.

Current aviation weather report (METAR) for Norwich International Airport

Report is more than 6 hours old.

2022/11/14 15:20 (retrieved 2 years ago)

EGSH 141520Z 13003KT 100V170 CAVOK 13/10 Q1006 NOSIG

Closest aviation forecast (TAF) to Norwich International Airport

Forecast is more than 12 hours old.

Closest forecast is RAF Lakenheath, 30.8 nm (57.1 km) WSW.

2023/02/22 15:07 Ammendment (retrieved 1 year ago)

TAF AMD EGUL 221517Z 2215/2320 28009KT 9000 BR FEW010 FEW016 BKN022 600505 QNH2979INS TEMPO 2215/2216 BKN012 BECMG 2216/2217 26010G15KT 9999 NSW BKN025 OVC060 600405 QNH2981INS BECMG 2221/2222 30010G15KT 9999 SCT012 OVC015 600303 QNH2993INS BECMG 2302/2303 36015G25KT 8000 -SHRA BKN012 OVC015 610255 510003 QNH3000INS BECMG 2305/2306 01020G30KT 9999 NSW SCT015 BKN025 600253 510005 QNH3002INS BECMG 2311/2312 03015G25KT 9999 SCT025 BKN070 600702 510003 QNH3005INS TX08/2215Z TN04/2223Z